Time;durP1;ratioP1;P1;durP2;ratioP2;P2;SDS_P1;SDS_P2;PMS_P1;PMS_P2;Temp;Humidity;BMP_temperature;BMP_pressure;BME280_temperature;BME280_humidity;BME280_pressure;Samples;Min_cycle;Max_cycle;Signal;HPM_P1;HPM_P2
2022/05/07 00:00:31;;;;;;;64.30;17.10;;;;;;;;;;4986120;28;20658;-47
2022/05/07 00:02:57;;;;;;;76.60;19.05;;;;;;;;;;4982814;28;20271;-47
2022/05/07 00:05:24;;;;;;;48.77;13.90;;;;;;;;;;4987784;28;20240;-47
2022/05/07 00:07:51;;;;;;;70.17;18.77;;;;;;;;;;4982642;28;20221;-47
2022/05/07 00:10:17;;;;;;;56.60;16.13;;;;;;;;;;4987658;28;20209;-47
2022/05/07 00:12:43;;;;;;;65.00;17.50;;;;;;;;;;4985875;28;20583;-47
2022/05/07 00:15:09;;;;;;;57.20;16.15;;;;;;;;;;4993169;28;20229;-47
2022/05/07 00:20:20;;;;;;;65.67;16.77;;;;;;;;;;4988499;28;20729;-47
2022/05/07 00:22:46;;;;;;;56.25;15.45;;;;;;;;;;4985393;28;20221;-47
2022/05/07 00:25:13;;;;;;;47.70;13.35;;;;;;;;;;4982178;28;20329;-47
2022/05/07 00:27:39;;;;;;;57.47;14.93;;;;;;;;;;4990461;28;20944;-47
2022/05/07 00:30:05;;;;;;;44.77;12.67;;;;;;;;;;4998256;28;20297;-47
2022/05/07 00:32:31;;;;;;;67.05;16.95;;;;;;;;;;4982413;28;20669;-47
2022/05/07 00:34:57;;;;;;;73.00;18.17;;;;;;;;;;4986639;28;20312;-47
2022/05/07 00:37:23;;;;;;;61.73;17.37;;;;;;;;;;4982688;28;20222;-47
2022/05/07 00:39:49;;;;;;;45.03;13.70;;;;;;;;;;4989537;28;20428;-47
2022/05/07 00:42:15;;;;;;;39.15;12.23;;;;;;;;;;4986826;28;20233;-47
2022/05/07 00:44:41;;;;;;;48.53;13.55;;;;;;;;;;4991537;28;20237;-47
2022/05/07 00:47:12;;;;;;;50.05;14.10;;;;;;;;;;4987456;28;20593;-47
2022/05/07 00:49:38;;;;;;;59.92;15.85;;;;;;;;;;4989515;28;20512;-47
2022/05/07 00:52:06;;;;;;;71.10;18.42;;;;;;;;;;4991507;28;20229;-47
2022/05/07 00:54:32;;;;;;;88.53;22.15;;;;;;;;;;4983449;28;20323;-47
2022/05/07 00:56:58;;;;;;;67.30;17.13;;;;;;;;;;4987940;28;20658;-47
2022/05/07 00:59:24;;;;;;;70.07;17.98;;;;;;;;;;4987701;28;20311;-47
2022/05/07 01:01:50;;;;;;;57.58;15.43;;;;;;;;;;4989179;28;20218;-47
2022/05/07 01:04:16;;;;;;;55.57;15.33;;;;;;;;;;4993798;28;20225;-47
2022/05/07 01:06:42;;;;;;;81.18;20.45;;;;;;;;;;4995342;28;20225;-47
2022/05/07 01:09:08;;;;;;;54.15;15.30;;;;;;;;;;4988952;28;20209;-47
2022/05/07 01:11:34;;;;;;;73.68;19.00;;;;;;;;;;4987402;28;20252;-47
2022/05/07 01:14:00;;;;;;;46.75;13.70;;;;;;;;;;4988955;28;20222;-47
2022/05/07 01:16:26;;;;;;;70.65;18.52;;;;;;;;;;4988935;28;20239;-47
2022/05/07 01:18:52;;;;;;;54.80;15.37;;;;;;;;;;4985652;28;20233;-47
2022/05/07 01:21:18;;;;;;;47.00;13.98;;;;;;;;;;4990788;28;20253;-47
2022/05/07 01:23:45;;;;;;;68.57;18.00;;;;;;;;;;4988795;28;20185;-47
2022/05/07 01:26:12;;;;;;;51.38;14.55;;;;;;;;;;4986190;28;20240;-47
2022/05/07 01:28:38;;;;;;;65.47;17.40;;;;;;;;;;4984372;28;20559;-47
2022/05/07 01:31:05;;;;;;;82.90;20.70;;;;;;;;;;4987380;28;20209;-47
2022/05/07 01:33:34;;;;;;;71.37;18.67;;;;;;;;;;4986347;28;20309;-47
2022/05/07 01:36:01;;;;;;;74.27;18.93;;;;;;;;;;4987956;28;20296;-47
2022/05/07 01:38:27;;;;;;;78.68;20.20;;;;;;;;;;4987135;28;20222;-47
2022/05/07 01:40:53;;;;;;;55.50;15.20;;;;;;;;;;4989599;28;20218;-47
2022/05/07 01:43:19;;;;;;;42.40;12.85;;;;;;;;;;4989039;28;20591;-47
2022/05/07 01:45:45;;;;;;;71.68;18.50;;;;;;;;;;4990784;28;20658;-47
2022/05/07 01:48:11;;;;;;;72.47;18.67;;;;;;;;;;4996527;28;20177;-47
2022/05/07 01:50:39;;;;;;;71.87;18.30;;;;;;;;;;4985443;28;20190;-47
2022/05/07 01:53:05;;;;;;;80.15;20.17;;;;;;;;;;4986009;28;20815;-47
2022/05/07 01:55:33;;;;;;;52.42;14.90;;;;;;;;;;4989776;28;20214;-47
2022/05/07 01:57:59;;;;;;;67.32;16.67;;;;;;;;;;4989307;28;20546;-47
2022/05/07 02:00:25;;;;;;;53.58;15.35;;;;;;;;;;4994767;28;20214;-47
2022/05/07 02:02:51;;;;;;;58.70;15.77;;;;;;;;;;4988555;28;20205;-47
2022/05/07 02:05:17;;;;;;;58.05;15.57;;;;;;;;;;4995845;28;20220;-47
2022/05/07 02:07:43;;;;;;;58.97;14.93;;;;;;;;;;4987944;28;20727;-47
2022/05/07 02:10:09;;;;;;;48.35;13.80;;;;;;;;;;4987081;28;20206;-47
2022/05/07 02:12:35;;;;;;;67.40;17.90;;;;;;;;;;4982198;28;20758;-47
2022/05/07 02:15:01;;;;;;;65.78;17.42;;;;;;;;;;4986155;28;20268;-47
2022/05/07 02:17:27;;;;;;;70.85;17.13;;;;;;;;;;4986252;28;21494;-47
2022/05/07 02:19:53;;;;;;;50.25;14.07;;;;;;;;;;4993575;28;20232;-47
2022/05/07 02:22:18;;;;;;;63.90;17.25;;;;;;;;;;4984772;28;20217;-47
2022/05/07 02:24:46;;;;;;;51.05;14.73;;;;;;;;;;4989660;28;20586;-47
2022/05/07 02:27:12;;;;;;;64.53;17.15;;;;;;;;;;4984196;28;20217;-47
2022/05/07 02:29:38;;;;;;;74.22;18.90;;;;;;;;;;4984136;28;20185;-47
2022/05/07 02:32:05;;;;;;;54.90;14.95;;;;;;;;;;4988892;28;20239;-47
2022/05/07 02:34:31;;;;;;;52.45;14.60;;;;;;;;;;4986547;28;20296;-47
2022/05/07 02:36:58;;;;;;;27.40;9.13;;;;;;;;;;4987782;28;20228;-47
2022/05/07 02:39:24;;;;;;;64.70;17.37;;;;;;;;;;4989631;28;20224;-47
2022/05/07 02:44:35;;;;;;;58.67;15.55;;;;;;;;;;4982605;28;20264;-47
2022/05/07 02:47:01;;;;;;;41.63;12.52;;;;;;;;;;4990300;28;20221;-47
2022/05/07 02:49:27;;;;;;;50.63;13.77;;;;;;;;;;4987196;28;20224;-48
2022/05/07 02:51:53;;;;;;;84.23;20.53;;;;;;;;;;4988788;28;20609;-47
2022/05/07 02:54:18;;;;;;;99.28;24.83;;;;;;;;;;4986559;28;20669;-47
2022/05/07 02:56:44;;;;;;;70.88;18.95;;;;;;;;;;4982681;28;20606;-47
2022/05/07 02:59:10;;;;;;;65.88;17.27;;;;;;;;;;4986893;28;20252;-47
2022/05/07 03:01:36;;;;;;;53.20;14.60;;;;;;;;;;4990808;28;20287;-47
2022/05/07 03:04:02;;;;;;;52.17;14.57;;;;;;;;;;4984963;28;20607;-47
2022/05/07 03:06:28;;;;;;;79.45;20.10;;;;;;;;;;4984115;28;20241;-47
2022/05/07 03:08:54;;;;;;;60.07;16.20;;;;;;;;;;4987866;28;20266;-47
2022/05/07 03:11:20;;;;;;;43.77;13.30;;;;;;;;;;4989074;28;20216;-47
2022/05/07 03:13:46;;;;;;;86.13;21.37;;;;;;;;;;4982884;28;20217;-47
2022/05/07 03:16:12;;;;;;;59.50;15.80;;;;;;;;;;4988840;28;20327;-47
2022/05/07 03:18:38;;;;;;;65.13;17.33;;;;;;;;;;4985502;28;20590;-47
2022/05/07 03:21:04;;;;;;;52.60;14.50;;;;;;;;;;4992782;28;20326;-47
2022/05/07 03:23:29;;;;;;;55.30;15.47;;;;;;;;;;4986130;28;20492;-47
2022/05/07 03:25:55;;;;;;;53.37;14.93;;;;;;;;;;4984804;28;20763;-47
2022/05/07 03:28:22;;;;;;;50.33;14.95;;;;;;;;;;4988779;28;20217;-47
2022/05/07 03:30:47;;;;;;;80.13;20.42;;;;;;;;;;4983039;28;20213;-47
2022/05/07 03:33:14;;;;;;;60.63;17.00;;;;;;;;;;4985991;28;20279;-47
2022/05/07 03:35:40;;;;;;;53.17;14.33;;;;;;;;;;4986152;28;20228;-47
2022/05/07 03:38:06;;;;;;;72.05;17.92;;;;;;;;;;4989942;28;20213;-49
2022/05/07 03:40:32;;;;;;;69.05;17.75;;;;;;;;;;4983705;28;20590;-47
2022/05/07 03:42:58;;;;;;;52.63;13.95;;;;;;;;;;4996037;28;20265;-47
2022/05/07 03:45:25;;;;;;;47.47;14.20;;;;;;;;;;4984635;28;20263;-47
2022/05/07 03:47:51;;;;;;;72.13;19.20;;;;;;;;;;4984638;28;20308;-46
2022/05/07 03:50:17;;;;;;;51.45;14.82;;;;;;;;;;4985181;28;20287;-47
2022/05/07 03:55:28;;;;;;;82.53;20.95;;;;;;;;;;4984265;28;20219;-47
2022/05/07 03:57:54;;;;;;;83.88;21.77;;;;;;;;;;4983146;28;20221;-47
2022/05/07 04:00:20;;;;;;;67.75;18.17;;;;;;;;;;4985601;28;20248;-47
2022/05/07 04:02:46;;;;;;;69.22;18.25;;;;;;;;;;4983320;28;20693;-47
2022/05/07 04:05:12;;;;;;;54.78;15.13;;;;;;;;;;4986052;28;20213;-47
2022/05/07 04:07:38;;;;;;;52.10;14.70;;;;;;;;;;4987245;28;20320;-47
2022/05/07 04:10:04;;;;;;;67.80;17.98;;;;;;;;;;4990654;28;20232;-47
2022/05/07 04:12:31;;;;;;;81.10;20.73;;;;;;;;;;4987029;28;20563;-47
2022/05/07 04:15:00;;;;;;;49.53;13.75;;;;;;;;;;4986557;28;20336;-47
2022/05/07 04:17:26;;;;;;;83.03;21.13;;;;;;;;;;4985696;28;20229;-47
2022/05/07 04:19:52;;;;;;;55.80;15.97;;;;;;;;;;4990914;28;20334;-47
2022/05/07 04:22:18;;;;;;;63.03;17.38;;;;;;;;;;4980471;28;20551;-47
2022/05/07 04:24:44;;;;;;;73.40;19.63;;;;;;;;;;4984872;28;20226;-47
2022/05/07 04:27:10;;;;;;;74.68;19.48;;;;;;;;;;4983597;28;20221;-47
2022/05/07 04:29:36;;;;;;;59.42;16.35;;;;;;;;;;4985577;28;20668;-47
2022/05/07 04:32:03;;;;;;;48.25;14.23;;;;;;;;;;4984761;28;20213;-47
2022/05/07 04:34:29;;;;;;;54.58;15.60;;;;;;;;;;4985738;28;20209;-47
2022/05/07 04:36:56;;;;;;;65.87;17.13;;;;;;;;;;4989174;28;20225;-47
2022/05/07 04:39:21;;;;;;;67.90;19.17;;;;;;;;;;4987675;28;20222;-47
2022/05/07 04:41:47;;;;;;;50.03;14.88;;;;;;;;;;4996004;28;20259;-47
2022/05/07 04:44:13;;;;;;;61.88;17.58;;;;;;;;;;4990245;28;20283;-47
2022/05/07 04:46:39;;;;;;;72.88;19.17;;;;;;;;;;4985757;28;20218;-47
2022/05/07 04:49:06;;;;;;;72.88;18.73;;;;;;;;;;4986851;28;20254;-48
2022/05/07 04:51:32;;;;;;;64.30;18.10;;;;;;;;;;4987583;28;20287;-47
2022/05/07 04:53:58;;;;;;;85.47;22.08;;;;;;;;;;4988833;28;20595;-47
2022/05/07 04:56:27;;;;;;;71.72;18.88;;;;;;;;;;4990088;28;20282;-47
2022/05/07 04:58:53;;;;;;;53.45;15.70;;;;;;;;;;4986952;28;20225;-47
2022/05/07 05:01:19;;;;;;;77.53;20.70;;;;;;;;;;4989403;28;20307;-47
2022/05/07 05:03:45;;;;;;;51.67;15.48;;;;;;;;;;4988873;28;20226;-47
2022/05/07 05:06:11;;;;;;;69.88;19.75;;;;;;;;;;4990351;28;20307;-47
2022/05/07 05:08:37;;;;;;;54.60;15.95;;;;;;;;;;4992895;28;20300;-47
2022/05/07 05:11:03;;;;;;;52.75;15.68;;;;;;;;;;4992098;28;20336;-47
2022/05/07 05:13:29;;;;;;;81.88;20.58;;;;;;;;;;4985376;28;20504;-47
2022/05/07 05:15:55;;;;;;;25.63;9.73;;;;;;;;;;4987041;28;20232;-47
2022/05/07 05:18:21;;;;;;;61.50;17.92;;;;;;;;;;4991325;28;20220;-47
2022/05/07 05:20:46;;;;;;;54.67;15.80;;;;;;;;;;4989789;28;20177;-47
2022/05/07 05:23:12;;;;;;;73.00;20.15;;;;;;;;;;4985116;28;20213;-47
2022/05/07 05:25:43;;;;;;;58.92;17.48;;;;;;;;;;4994970;28;20288;-47
2022/05/07 05:28:09;;;;;;;70.72;19.13;;;;;;;;;;4989582;28;20295;-47
2022/05/07 05:30:35;;;;;;;52.95;15.07;;;;;;;;;;4987833;28;20260;-48
2022/05/07 05:33:01;;;;;;;72.60;19.40;;;;;;;;;;5000946;28;20602;-48
2022/05/07 05:35:27;;;;;;;45.00;14.20;;;;;;;;;;5000672;28;20205;-48
2022/05/07 05:37:54;;;;;;;63.00;17.10;;;;;;;;;;5000276;28;20749;-47
2022/05/07 05:40:20;;;;;;;56.15;15.63;;;;;;;;;;5008991;28;20296;-48
2022/05/07 05:42:47;;;;;;;80.80;21.00;;;;;;;;;;4988951;28;20565;-48
2022/05/07 05:45:13;;;;;;;76.25;20.05;;;;;;;;;;4974880;28;20174;-48
2022/05/07 05:47:39;;;;;;;45.88;13.75;;;;;;;;;;5002058;28;20259;-48
2022/05/07 05:50:05;;;;;;;49.58;15.45;;;;;;;;;;4990873;28;20302;-48
2022/05/07 05:52:32;;;;;;;65.35;18.23;;;;;;;;;;4992802;28;20220;-48
2022/05/07 05:54:58;;;;;;;66.85;18.23;;;;;;;;;;4994806;28;20213;-47
2022/05/07 05:57:24;;;;;;;23.20;9.23;;;;;;;;;;4990866;28;20322;-48
2022/05/07 05:59:50;;;;;;;38.08;12.35;;;;;;;;;;4989889;28;20209;-48
2022/05/07 06:02:18;;;;;;;44.00;14.30;;;;;;;;;;4989194;28;20209;-47
2022/05/07 06:04:44;;;;;;;56.97;16.25;;;;;;;;;;4997867;28;20200;-47
2022/05/07 06:07:10;;;;;;;69.95;20.08;;;;;;;;;;5009324;28;20626;-48
2022/05/07 06:09:36;;;;;;;61.22;17.85;;;;;;;;;;5007729;28;20243;-48
2022/05/07 06:12:02;;;;;;;56.75;16.73;;;;;;;;;;4994841;28;20269;-50
2022/05/07 06:14:28;;;;;;;65.97;18.45;;;;;;;;;;4996831;28;20237;-48
2022/05/07 06:16:54;;;;;;;33.08;11.55;;;;;;;;;;4993899;28;20225;-48
2022/05/07 06:19:20;;;;;;;59.60;17.17;;;;;;;;;;4994476;28;20347;-48
2022/05/07 06:21:46;;;;;;;63.47;18.15;;;;;;;;;;4989656;28;20320;-48
2022/05/07 06:29:40;;;;;;;26.45;10.85;;;;;;;;;;4989650;28;20200;-48
2022/05/07 06:32:07;;;;;;;73.72;21.60;;;;;;;;;;4989980;28;20741;-48
2022/05/07 06:34:32;;;;;;;71.70;20.98;;;;;;;;;;4988211;28;20686;-48
2022/05/07 06:36:58;;;;;;;63.05;18.95;;;;;;;;;;4989468;28;20214;-48
2022/05/07 06:39:25;;;;;;;60.72;18.88;;;;;;;;;;4997543;28;20209;-48
2022/05/07 06:41:51;;;;;;;47.53;15.23;;;;;;;;;;4990330;28;20231;-48
2022/05/07 06:44:17;;;;;;;58.08;17.35;;;;;;;;;;4988977;28;20233;-48
2022/05/07 06:46:44;;;;;;;51.03;16.10;;;;;;;;;;4989014;28;20724;-48
2022/05/07 06:49:10;;;;;;;54.28;16.38;;;;;;;;;;5006732;28;20213;-48
2022/05/07 06:51:36;;;;;;;61.60;17.80;;;;;;;;;;5008150;28;20306;-48
2022/05/07 06:54:02;;;;;;;64.90;19.25;;;;;;;;;;4996925;28;20189;-48
2022/05/07 06:56:28;;;;;;;65.72;18.88;;;;;;;;;;4986860;28;20239;-48
2022/05/07 06:58:55;;;;;;;69.93;20.98;;;;;;;;;;5006637;28;20295;-48
2022/05/07 07:01:21;;;;;;;78.43;21.35;;;;;;;;;;5007936;28;20561;-48
2022/05/07 07:03:47;;;;;;;68.18;19.35;;;;;;;;;;5003357;28;20247;-48
2022/05/07 07:06:13;;;;;;;70.72;20.52;;;;;;;;;;4987919;28;20704;-48
2022/05/07 07:08:39;;;;;;;144.05;35.65;;;;;;;;;;4976987;28;20181;-51
2022/05/07 07:11:05;;;;;;;165.15;37.67;;;;;;;;;;4962708;28;20858;-51
2022/05/07 07:13:31;;;;;;;130.13;33.50;;;;;;;;;;4963925;28;20217;-51
2022/05/07 07:15:57;;;;;;;121.95;33.67;;;;;;;;;;4958698;28;20213;-49
2022/05/07 07:18:23;;;;;;;157.85;40.65;;;;;;;;;;4958797;28;20239;-50
2022/05/07 07:20:49;;;;;;;103.07;27.70;;;;;;;;;;4969431;28;20361;-50
2022/05/07 07:23:15;;;;;;;155.77;38.33;;;;;;;;;;4968259;28;20304;-50
2022/05/07 07:25:42;;;;;;;195.00;46.47;;;;;;;;;;4965603;28;20214;-49
2022/05/07 07:28:09;;;;;;;114.35;30.45;;;;;;;;;;4966328;28;20352;-50
2022/05/07 07:30:35;;;;;;;87.22;24.92;;;;;;;;;;4965836;28;20237;-50
2022/05/07 07:33:01;;;;;;;96.78;27.55;;;;;;;;;;4978247;28;21215;-49
2022/05/07 07:35:27;;;;;;;204.63;47.42;;;;;;;;;;4972087;28;20212;-50
2022/05/07 07:37:53;;;;;;;110.03;29.48;;;;;;;;;;4970487;28;20237;-50
2022/05/07 07:40:19;;;;;;;88.18;25.35;;;;;;;;;;4981965;28;20221;-49
2022/05/07 07:42:45;;;;;;;108.05;29.08;;;;;;;;;;4981496;28;20233;-49
2022/05/07 07:47:59;;;;;;;104.93;29.42;;;;;;;;;;4977362;28;20626;-50
2022/05/07 07:50:26;;;;;;;75.65;23.15;;;;;;;;;;4982465;28;20209;-50
2022/05/07 07:52:56;;;;;;;86.93;23.90;;;;;;;;;;4980667;28;20862;-50
2022/05/07 07:55:22;;;;;;;210.98;50.30;;;;;;;;;;4959118;28;20217;-50
2022/05/07 07:57:49;;;;;;;153.48;37.50;;;;;;;;;;4959837;28;20300;-50
2022/05/07 08:00:16;;;;;;;110.68;31.08;;;;;;;;;;4965052;28;20220;-50
2022/05/07 08:02:55;;;;;;;178.45;41.60;;;;;;;;;;4963835;28;20193;-50
2022/05/07 08:05:21;;;;;;;204.43;46.58;;;;;;;;;;4959765;28;20236;-48
2022/05/07 08:13:17;;;;;;;202.88;46.22;;;;;;;;;;4972917;28;20818;-48
2022/05/07 08:15:43;;;;;;;143.45;35.58;;;;;;;;;;4970001;28;20221;-48
2022/05/07 08:18:09;;;;;;;98.40;28.10;;;;;;;;;;4970560;28;20260;-48
2022/05/07 08:20:35;;;;;;;121.75;31.88;;;;;;;;;;4975331;28;20229;-48
2022/05/07 08:23:01;;;;;;;78.35;22.55;;;;;;;;;;4972786;28;20213;-48
2022/05/07 08:25:26;;;;;;;100.68;28.35;;;;;;;;;;4977115;28;20536;-47
2022/05/07 08:27:52;;;;;;;94.18;25.60;;;;;;;;;;4973833;28;20228;-47
2022/05/07 08:30:18;;;;;;;93.63;26.80;;;;;;;;;;4967867;28;20228;-51
2022/05/07 08:32:44;;;;;;;100.15;26.85;;;;;;;;;;4973323;28;20261;-50
2022/05/07 08:35:10;;;;;;;139.77;41.08;;;;;;;;;;4973270;28;20225;-50
2022/05/07 08:37:36;;;;;;;114.80;30.48;;;;;;;;;;4960802;28;20230;-51
2022/05/07 08:40:03;;;;;;;63.55;20.70;;;;;;;;;;4980890;28;20236;-50
2022/05/07 08:42:29;;;;;;;95.30;27.67;;;;;;;;;;4972067;28;20671;-50
2022/05/07 08:44:56;;;;;;;83.80;25.33;;;;;;;;;;4984408;28;20738;-50
2022/05/07 08:47:25;;;;;;;92.90;27.33;;;;;;;;;;4983852;28;20214;-50
2022/05/07 08:49:51;;;;;;;90.55;24.63;;;;;;;;;;4986803;28;20619;-51
2022/05/07 08:52:17;;;;;;;158.55;40.03;;;;;;;;;;4981048;28;20216;-50
2022/05/07 08:54:45;;;;;;;146.38;38.50;;;;;;;;;;4978145;28;20221;-50
2022/05/07 08:57:12;;;;;;;77.90;24.55;;;;;;;;;;4979902;28;20213;-50
2022/05/07 08:59:38;;;;;;;115.57;30.58;;;;;;;;;;4978167;28;20353;-50
2022/05/07 09:02:04;;;;;;;133.43;36.97;;;;;;;;;;4983429;28;20839;-51
2022/05/07 09:04:30;;;;;;;99.22;30.48;;;;;;;;;;4987277;28;20206;-51
2022/05/07 09:06:57;;;;;;;122.00;34.40;;;;;;;;;;4983266;28;20313;-50
2022/05/07 09:09:23;;;;;;;79.50;26.08;;;;;;;;;;4986790;28;20236;-50
2022/05/07 09:11:49;;;;;;;100.53;26.05;;;;;;;;;;4984048;28;20277;-51
2022/05/07 09:14:19;;;;;;;72.80;22.98;;;;;;;;;;4986449;28;20292;-50
2022/05/07 09:16:50;;;;;;;102.28;31.27;;;;;;;;;;4984054;28;20597;-51
2022/05/07 09:19:24;;;;;;;82.38;28.27;;;;;;;;;;4982618;28;20438;-51
2022/05/07 09:21:50;;;;;;;125.82;37.35;;;;;;;;;;4975334;28;20233;-51
2022/05/07 09:24:17;;;;;;;110.30;33.83;;;;;;;;;;4970388;28;20599;-50
2022/05/07 09:26:44;;;;;;;121.63;36.88;;;;;;;;;;4979421;28;20238;-50
2022/05/07 09:29:14;;;;;;;130.07;36.97;;;;;;;;;;4978981;28;20209;-50
2022/05/07 09:31:44;;;;;;;130.18;36.13;;;;;;;;;;4949624;28;20201;-50
2022/05/07 09:36:56;;;;;;;116.30;37.55;;;;;;;;;;4976420;28;20227;-52
2022/05/07 09:39:22;;;;;;;155.73;46.00;;;;;;;;;;4967586;28;20232;-50
2022/05/07 09:41:54;;;;;;;130.25;39.10;;;;;;;;;;4968349;28;20217;-51
2022/05/07 09:44:24;;;;;;;94.45;30.40;;;;;;;;;;4975932;28;20603;-51
2022/05/07 09:46:50;;;;;;;120.40;38.45;;;;;;;;;;4977596;28;20217;-50
2022/05/07 09:49:16;;;;;;;106.70;35.25;;;;;;;;;;4976875;28;20516;-51
2022/05/07 09:51:43;;;;;;;183.02;46.50;;;;;;;;;;4967966;28;20685;-50
2022/05/07 09:59:39;;;;;;;115.55;34.53;;;;;;;;;;4975716;28;20314;-51
2022/05/07 10:02:23;;;;;;;148.00;44.95;;;;;;;;;;4968311;28;20315;-50
2022/05/07 10:04:54;;;;;;;158.90;43.05;;;;;;;;;;4971410;28;20288;-51
2022/05/07 10:07:23;;;;;;;81.05;29.25;;;;;;;;;;4973403;28;20241;-51
2022/05/07 10:09:58;;;;;;;145.35;38.35;;;;;;;;;;4966381;28;20218;-50
2022/05/07 10:12:24;;;;;;;58.33;24.05;;;;;;;;;;4967927;28;20178;-51
2022/05/07 10:14:50;;;;;;;106.65;33.95;;;;;;;;;;4970012;28;20273;-51
2022/05/07 10:17:16;;;;;;;82.00;30.95;;;;;;;;;;4969904;28;20311;-51
2022/05/07 10:19:43;;;;;;;74.75;26.67;;;;;;;;;;4975536;28;20234;-51
2022/05/07 10:22:16;;;;;;;178.00;51.55;;;;;;;;;;4968851;28;20267;-50
2022/05/07 10:24:42;;;;;;;98.13;34.60;;;;;;;;;;4972664;28;20248;-51
2022/05/07 10:27:19;;;;;;;176.45;52.80;;;;;;;;;;4970111;28;20276;-50
2022/05/07 10:29:46;;;;;;;149.27;46.25;;;;;;;;;;4963754;28;20430;-51
2022/05/07 10:32:12;;;;;;;69.50;28.98;;;;;;;;;;4972126;28;20213;-51
2022/05/07 10:34:38;;;;;;;85.65;31.60;;;;;;;;;;4972769;28;20228;-51
2022/05/07 10:37:05;;;;;;;122.53;40.42;;;;;;;;;;4966495;28;20217;-51
2022/05/07 10:39:31;;;;;;;199.25;57.67;;;;;;;;;;4969388;28;20213;-51
2022/05/07 10:41:57;;;;;;;176.70;53.08;;;;;;;;;;4972083;28;20627;-51
2022/05/07 10:44:33;;;;;;;186.18;51.55;;;;;;;;;;4962440;28;23177;-52
2022/05/07 10:47:11;;;;;;;66.13;27.30;;;;;;;;;;4974665;28;20218;-51
2022/05/07 10:49:54;;;;;;;158.25;50.72;;;;;;;;;;4982397;28;20221;-51
2022/05/07 10:52:30;;;;;;;64.43;30.35;;;;;;;;;;4983575;28;20214;-51
2022/05/07 10:55:12;;;;;;;87.25;31.95;;;;;;;;;;4985784;28;20197;-51
2022/05/07 10:57:42;;;;;;;100.90;38.92;;;;;;;;;;4983802;28;20232;-51
2022/05/07 11:00:10;;;;;;;56.95;25.27;;;;;;;;;;4976989;28;20459;-51
2022/05/07 11:02:36;;;;;;;75.50;30.50;;;;;;;;;;4977935;28;20219;-51
2022/05/07 11:05:02;;;;;;;77.28;33.60;;;;;;;;;;4981830;28;20215;-51
2022/05/07 11:07:28;;;;;;;84.78;35.65;;;;;;;;;;4984414;28;20214;-51
2022/05/07 11:09:54;;;;;;;101.20;42.03;;;;;;;;;;4975663;28;20232;-51
2022/05/07 11:12:22;;;;;;;85.38;38.97;;;;;;;;;;4975979;28;20705;-53
2022/05/07 11:14:49;;;;;;;59.45;30.00;;;;;;;;;;4979831;28;20174;-51
2022/05/07 11:17:20;;;;;;;97.38;41.67;;;;;;;;;;4984258;28;20268;-51
2022/05/07 11:19:46;;;;;;;155.15;58.25;;;;;;;;;;4982101;28;20295;-51
2022/05/07 11:22:12;;;;;;;91.97;40.05;;;;;;;;;;4979653;28;20229;-51
2022/05/07 11:24:38;;;;;;;71.72;34.65;;;;;;;;;;4984012;28;20556;-51
2022/05/07 11:27:10;;;;;;;86.28;39.08;;;;;;;;;;4983174;28;20217;-51
2022/05/07 11:29:36;;;;;;;93.85;36.97;;;;;;;;;;4977015;28;20209;-51
2022/05/07 11:32:07;;;;;;;94.07;38.88;;;;;;;;;;4984495;28;20273;-51
2022/05/07 11:34:33;;;;;;;67.80;28.90;;;;;;;;;;4984986;28;20704;-51
2022/05/07 11:37:15;;;;;;;74.07;30.50;;;;;;;;;;4983872;28;20237;-51
2022/05/07 11:40:00;;;;;;;81.13;32.05;;;;;;;;;;4982570;28;20583;-52
2022/05/07 11:42:33;;;;;;;75.07;31.45;;;;;;;;;;4982699;28;20272;-51
2022/05/07 11:47:57;;;;;;;78.82;32.90;;;;;;;;;;4975781;28;20250;-51
2022/05/07 11:50:25;;;;;;;104.68;39.17;;;;;;;;;;4983630;28;20228;-51
2022/05/07 11:52:51;;;;;;;75.10;32.95;;;;;;;;;;4983605;28;20217;-50
2022/05/07 11:55:23;;;;;;;78.28;32.85;;;;;;;;;;4987419;28;20205;-51
2022/05/07 11:57:49;;;;;;;79.95;34.55;;;;;;;;;;4980723;28;20232;-51
2022/05/07 12:00:16;;;;;;;84.57;36.83;;;;;;;;;;4985986;28;20209;-51
2022/05/07 12:02:55;;;;;;;106.07;42.92;;;;;;;;;;4979043;28;20212;-51
2022/05/07 12:05:21;;;;;;;61.75;31.20;;;;;;;;;;4980181;28;20601;-51
2022/05/07 12:07:49;;;;;;;92.40;37.60;;;;;;;;;;4970338;28;20217;-51
2022/05/07 12:10:16;;;;;;;97.78;43.22;;;;;;;;;;4982404;28;20213;-51
2022/05/07 12:12:42;;;;;;;89.50;40.58;;;;;;;;;;4982754;28;20274;-51
2022/05/07 12:15:08;;;;;;;60.72;33.00;;;;;;;;;;4982938;28;20715;-51
2022/05/07 12:17:53;;;;;;;48.97;29.50;;;;;;;;;;4984159;28;20240;-51
2022/05/07 12:20:19;;;;;;;65.13;32.47;;;;;;;;;;4982556;28;20209;-51
2022/05/07 12:31:01;;;;;;;96.93;42.03;;;;;;;;;;4982795;28;20367;-51
2022/05/07 12:33:27;;;;;;;146.60;56.25;;;;;;;;;;4973527;28;20177;-51
2022/05/07 12:35:53;;;;;;;53.08;29.27;;;;;;;;;;4979824;28;20402;-51
2022/05/07 12:38:19;;;;;;;57.22;29.75;;;;;;;;;;4984618;28;20217;-51
2022/05/07 12:40:46;;;;;;;101.18;41.60;;;;;;;;;;4982585;28;20379;-51
2022/05/07 12:43:12;;;;;;;122.97;45.67;;;;;;;;;;4951027;28;20359;-51
2022/05/07 12:45:38;;;;;;;122.80;44.67;;;;;;;;;;4962883;28;21191;-51
2022/05/07 12:48:04;;;;;;;88.63;36.47;;;;;;;;;;4962718;28;20203;-51
2022/05/07 12:50:30;;;;;;;48.15;27.63;;;;;;;;;;4968773;28;20741;-52
2022/05/07 12:52:56;;;;;;;99.05;37.30;;;;;;;;;;4971202;28;20217;-51
2022/05/07 12:55:22;;;;;;;114.30;39.38;;;;;;;;;;4975488;28;20336;-51
2022/05/07 12:57:48;;;;;;;171.98;63.53;;;;;;;;;;4973021;28;20229;-51
2022/05/07 13:00:14;;;;;;;110.93;44.67;;;;;;;;;;4976632;28;20640;-51
2022/05/07 13:02:40;;;;;;;120.25;42.58;;;;;;;;;;4974152;28;20251;-51
2022/05/07 13:05:06;;;;;;;75.75;33.25;;;;;;;;;;4977506;28;20220;-51
2022/05/07 13:07:32;;;;;;;62.10;29.48;;;;;;;;;;4987983;28;20313;-51
2022/05/07 13:09:58;;;;;;;65.53;30.48;;;;;;;;;;4986890;28;20336;-51
2022/05/07 13:12:24;;;;;;;71.07;33.63;;;;;;;;;;4987625;28;20186;-51
2022/05/07 13:14:51;;;;;;;139.57;57.40;;;;;;;;;;4980934;28;20186;-51
2022/05/07 13:17:17;;;;;;;115.50;51.25;;;;;;;;;;4983180;28;20224;-51
2022/05/07 13:19:43;;;;;;;69.63;38.90;;;;;;;;;;4985693;28;20225;-51
2022/05/07 13:22:09;;;;;;;74.45;36.65;;;;;;;;;;4985332;28;20209;-51
2022/05/07 13:24:35;;;;;;;53.35;41.20;;;;;;;;;;4987514;28;20247;-51
2022/05/07 13:27:01;;;;;;;98.57;53.47;;;;;;;;;;4989910;28;20193;-51
2022/05/07 13:29:28;;;;;;;127.43;61.50;;;;;;;;;;4978805;28;20218;-51
2022/05/07 13:31:57;;;;;;;94.07;55.22;;;;;;;;;;4987614;28;20256;-51
2022/05/07 13:34:23;;;;;;;68.88;47.90;;;;;;;;;;4984263;28;20221;-51
2022/05/07 13:36:49;;;;;;;198.18;82.72;;;;;;;;;;4984961;28;20241;-49
2022/05/07 13:39:15;;;;;;;110.20;56.15;;;;;;;;;;4979525;28;20213;-49
2022/05/07 13:41:41;;;;;;;73.70;42.83;;;;;;;;;;4988331;28;20219;-49
2022/05/07 13:44:10;;;;;;;47.50;39.20;;;;;;;;;;4985057;28;20296;-49
2022/05/07 13:46:37;;;;;;;80.00;48.25;;;;;;;;;;4981178;28;20712;-49
2022/05/07 13:49:03;;;;;;;82.72;49.35;;;;;;;;;;4988743;28;20573;-49
2022/05/07 13:51:29;;;;;;;96.18;53.58;;;;;;;;;;4984624;28;20177;-50
2022/05/07 13:53:56;;;;;;;81.53;44.60;;;;;;;;;;4986296;28;20229;-49
2022/05/07 13:56:23;;;;;;;69.55;42.75;;;;;;;;;;4985156;28;20228;-49
2022/05/07 13:58:49;;;;;;;109.65;51.03;;;;;;;;;;4986479;28;20232;-49
2022/05/07 14:01:15;;;;;;;115.90;52.60;;;;;;;;;;4974766;28;20227;-49
2022/05/07 14:03:41;;;;;;;138.15;58.25;;;;;;;;;;4982025;28;20272;-49
2022/05/07 14:06:07;;;;;;;78.35;38.08;;;;;;;;;;4985575;28;20213;-49
2022/05/07 14:08:33;;;;;;;97.28;41.50;;;;;;;;;;4979288;28;20649;-49
2022/05/07 14:11:00;;;;;;;118.18;47.53;;;;;;;;;;4980131;28;20772;-49
2022/05/07 14:13:26;;;;;;;99.50;46.30;;;;;;;;;;4983456;28;20722;-49
2022/05/07 14:15:51;;;;;;;61.90;31.38;;;;;;;;;;4981939;28;20308;-49
2022/05/07 14:18:17;;;;;;;95.43;41.97;;;;;;;;;;4984298;28;20241;-49
2022/05/07 14:20:43;;;;;;;173.57;63.53;;;;;;;;;;4977646;28;20189;-49
2022/05/07 14:23:12;;;;;;;84.32;36.80;;;;;;;;;;4974455;28;20231;-49
2022/05/07 14:25:38;;;;;;;97.88;49.55;;;;;;;;;;4981057;28;20214;-49
2022/05/07 14:28:04;;;;;;;110.05;48.55;;;;;;;;;;4982831;28;20536;-49
2022/05/07 14:30:30;;;;;;;86.93;41.33;;;;;;;;;;4981429;28;20182;-49
2022/05/07 14:32:57;;;;;;;113.30;55.63;;;;;;;;;;4981919;28;20186;-50
2022/05/07 14:35:23;;;;;;;56.97;37.33;;;;;;;;;;4980111;28;20210;-49
2022/05/07 14:37:49;;;;;;;84.78;41.33;;;;;;;;;;4978054;28;20685;-49
2022/05/07 14:40:33;;;;;;;80.53;41.75;;;;;;;;;;4981371;28;20241;-49
2022/05/07 14:43:01;;;;;;;154.32;63.90;;;;;;;;;;4979830;28;20256;-49
2022/05/07 14:45:27;;;;;;;85.88;44.97;;;;;;;;;;4978067;28;20189;-50
2022/05/07 14:47:54;;;;;;;90.10;44.75;;;;;;;;;;4979537;28;20201;-49
2022/05/07 14:50:21;;;;;;;83.03;43.38;;;;;;;;;;4981902;28;20291;-49
2022/05/07 14:52:47;;;;;;;100.47;47.03;;;;;;;;;;4981146;28;20209;-49